sensor_id;sensor_type;location;lat;lon;timestamp;P1;durP1;ratioP1;P2;durP2;ratioP2
13708;SDS011;54933;51.908;7.730;2023-01-29T00:01:20;1.60;;;1.30;;
13708;SDS011;54933;51.908;7.730;2023-01-29T00:03:45;1.83;;;1.20;;
13708;SDS011;54933;51.908;7.730;2023-01-29T00:06:11;1.20;;;1.20;;
13708;SDS011;54933;51.908;7.730;2023-01-29T00:08:36;2.00;;;1.87;;
13708;SDS011;54933;51.908;7.730;2023-01-29T00:11:03;1.10;;;1.10;;
13708;SDS011;54933;51.908;7.730;2023-01-29T00:13:30;1.30;;;1.27;;
13708;SDS011;54933;51.908;7.730;2023-01-29T00:15:56;1.87;;;1.17;;
13708;SDS011;54933;51.908;7.730;2023-01-29T00:18:22;0.97;;;0.97;;
13708;SDS011;54933;51.908;7.730;2023-01-29T00:20:48;0.90;;;0.90;;
13708;SDS011;54933;51.908;7.730;2023-01-29T00:23:13;1.40;;;1.30;;
13708;SDS011;54933;51.908;7.730;2023-01-29T00:25:39;1.30;;;1.20;;
13708;SDS011;54933;51.908;7.730;2023-01-29T00:28:05;1.10;;;1.10;;
13708;SDS011;54933;51.908;7.730;2023-01-29T00:30:30;1.30;;;1.20;;
13708;SDS011;54933;51.908;7.730;2023-01-29T00:32:56;1.17;;;1.17;;
13708;SDS011;54933;51.908;7.730;2023-01-29T00:35:21;1.00;;;1.00;;
13708;SDS011;54933;51.908;7.730;2023-01-29T00:37:46;1.10;;;1.10;;
13708;SDS011;54933;51.908;7.730;2023-01-29T00:40:12;1.00;;;1.00;;
13708;SDS011;54933;51.908;7.730;2023-01-29T00:42:37;1.17;;;1.07;;
13708;SDS011;54933;51.908;7.730;2023-01-29T00:45:21;1.10;;;1.00;;
13708;SDS011;54933;51.908;7.730;2023-01-29T00:47:46;1.37;;;1.27;;
13708;SDS011;54933;51.908;7.730;2023-01-29T00:50:12;1.33;;;1.33;;
13708;SDS011;54933;51.908;7.730;2023-01-29T00:52:37;1.40;;;1.30;;
13708;SDS011;54933;51.908;7.730;2023-01-29T00:55:05;1.17;;;1.17;;
13708;SDS011;54933;51.908;7.730;2023-01-29T00:57:31;1.00;;;1.00;;
13708;SDS011;54933;51.908;7.730;2023-01-29T00:59:58;1.00;;;1.00;;
13708;SDS011;54933;51.908;7.730;2023-01-29T01:02:23;1.23;;;1.23;;
13708;SDS011;54933;51.908;7.730;2023-01-29T01:05:09;1.17;;;1.17;;
13708;SDS011;54933;51.908;7.730;2023-01-29T01:07:38;1.50;;;1.40;;
13708;SDS011;54933;51.908;7.730;2023-01-29T01:10:04;1.00;;;1.00;;
13708;SDS011;54933;51.908;7.730;2023-01-29T01:12:46;1.53;;;1.10;;
13708;SDS011;54933;51.908;7.730;2023-01-29T01:15:23;1.43;;;1.33;;
13708;SDS011;54933;51.908;7.730;2023-01-29T01:17:51;1.37;;;1.13;;
13708;SDS011;54933;51.908;7.730;2023-01-29T01:20:18;1.20;;;1.10;;
13708;SDS011;54933;51.908;7.730;2023-01-29T01:22:43;1.63;;;1.30;;
13708;SDS011;54933;51.908;7.730;2023-01-29T01:25:08;1.43;;;1.37;;
13708;SDS011;54933;51.908;7.730;2023-01-29T01:27:34;1.37;;;1.30;;
13708;SDS011;54933;51.908;7.730;2023-01-29T01:30:01;1.20;;;1.10;;
13708;SDS011;54933;51.908;7.730;2023-01-29T01:32:27;1.10;;;1.10;;
13708;SDS011;54933;51.908;7.730;2023-01-29T01:34:52;1.73;;;1.13;;
13708;SDS011;54933;51.908;7.730;2023-01-29T01:37:18;1.77;;;1.67;;
13708;SDS011;54933;51.908;7.730;2023-01-29T01:39:43;1.10;;;1.10;;
13708;SDS011;54933;51.908;7.730;2023-01-29T01:42:14;1.50;;;1.30;;
13708;SDS011;54933;51.908;7.730;2023-01-29T01:47:30;1.20;;;1.20;;
13708;SDS011;54933;51.908;7.730;2023-01-29T01:50:03;1.70;;;1.60;;
13708;SDS011;54933;51.908;7.730;2023-01-29T01:52:33;1.37;;;1.37;;
13708;SDS011;54933;51.908;7.730;2023-01-29T01:55:03;1.37;;;1.33;;
13708;SDS011;54933;51.908;7.730;2023-01-29T01:57:28;1.60;;;1.50;;
13708;SDS011;54933;51.908;7.730;2023-01-29T01:59:57;1.27;;;1.20;;
13708;SDS011;54933;51.908;7.730;2023-01-29T02:02:34;1.30;;;1.30;;
13708;SDS011;54933;51.908;7.730;2023-01-29T02:05:19;1.27;;;1.17;;
13708;SDS011;54933;51.908;7.730;2023-01-29T02:08:03;1.23;;;1.23;;
13708;SDS011;54933;51.908;7.730;2023-01-29T02:10:47;1.50;;;1.40;;
13708;SDS011;54933;51.908;7.730;2023-01-29T02:13:13;1.43;;;1.43;;
13708;SDS011;54933;51.908;7.730;2023-01-29T02:15:41;1.23;;;1.20;;
13708;SDS011;54933;51.908;7.730;2023-01-29T02:18:12;1.60;;;1.50;;
13708;SDS011;54933;51.908;7.730;2023-01-29T02:20:40;1.50;;;1.40;;
13708;SDS011;54933;51.908;7.730;2023-01-29T02:23:25;1.30;;;1.30;;
13708;SDS011;54933;51.908;7.730;2023-01-29T02:26:24;1.60;;;1.50;;
13708;SDS011;54933;51.908;7.730;2023-01-29T02:40:42;0.97;;;0.97;;
13708;SDS011;54933;51.908;7.730;2023-01-29T02:43:22;1.53;;;1.50;;
13708;SDS011;54933;51.908;7.730;2023-01-29T02:48:42;1.50;;;1.40;;
13708;SDS011;54933;51.908;7.730;2023-01-29T02:51:33;1.40;;;1.30;;
13708;SDS011;54933;51.908;7.730;2023-01-29T02:54:06;1.47;;;1.37;;
13708;SDS011;54933;51.908;7.730;2023-01-29T02:56:47;1.80;;;1.70;;
13708;SDS011;54933;51.908;7.730;2023-01-29T02:59:22;1.57;;;1.50;;
13708;SDS011;54933;51.908;7.730;2023-01-29T03:01:52;1.80;;;1.70;;
13708;SDS011;54933;51.908;7.730;2023-01-29T03:04:23;1.47;;;1.47;;
13708;SDS011;54933;51.908;7.730;2023-01-29T03:06:59;1.80;;;1.70;;
13708;SDS011;54933;51.908;7.730;2023-01-29T03:09:41;1.43;;;1.33;;
13708;SDS011;54933;51.908;7.730;2023-01-29T03:12:14;1.60;;;1.50;;
13708;SDS011;54933;51.908;7.730;2023-01-29T03:14:59;1.60;;;1.50;;
13708;SDS011;54933;51.908;7.730;2023-01-29T03:17:47;1.97;;;1.87;;
13708;SDS011;54933;51.908;7.730;2023-01-29T03:20:19;1.67;;;1.57;;
13708;SDS011;54933;51.908;7.730;2023-01-29T03:22:52;1.77;;;1.67;;
13708;SDS011;54933;51.908;7.730;2023-01-29T03:25:26;1.70;;;1.60;;
13708;SDS011;54933;51.908;7.730;2023-01-29T03:28:11;1.63;;;1.53;;
13708;SDS011;54933;51.908;7.730;2023-01-29T03:31:01;1.53;;;1.40;;
13708;SDS011;54933;51.908;7.730;2023-01-29T03:33:49;1.43;;;1.43;;
13708;SDS011;54933;51.908;7.730;2023-01-29T03:36:23;1.90;;;1.80;;
13708;SDS011;54933;51.908;7.730;2023-01-29T03:39:02;2.33;;;1.80;;
13708;SDS011;54933;51.908;7.730;2023-01-29T03:41:33;1.83;;;1.60;;
13708;SDS011;54933;51.908;7.730;2023-01-29T03:44:13;1.30;;;1.30;;
13708;SDS011;54933;51.908;7.730;2023-01-29T03:46:49;1.67;;;1.57;;
13708;SDS011;54933;51.908;7.730;2023-01-29T03:54:25;1.93;;;1.83;;
13708;SDS011;54933;51.908;7.730;2023-01-29T03:57:14;1.43;;;1.43;;
13708;SDS011;54933;51.908;7.730;2023-01-29T04:02:38;2.00;;;1.53;;
13708;SDS011;54933;51.908;7.730;2023-01-29T04:05:22;1.80;;;1.70;;
13708;SDS011;54933;51.908;7.730;2023-01-29T04:07:53;1.70;;;1.60;;
13708;SDS011;54933;51.908;7.730;2023-01-29T04:10:27;1.43;;;1.43;;
13708;SDS011;54933;51.908;7.730;2023-01-29T04:13:00;1.87;;;1.77;;
13708;SDS011;54933;51.908;7.730;2023-01-29T04:15:29;1.57;;;1.47;;
13708;SDS011;54933;51.908;7.730;2023-01-29T04:18:00;1.60;;;1.50;;
13708;SDS011;54933;51.908;7.730;2023-01-29T04:20:26;1.70;;;1.60;;
13708;SDS011;54933;51.908;7.730;2023-01-29T04:22:52;1.30;;;1.30;;
13708;SDS011;54933;51.908;7.730;2023-01-29T04:25:19;1.70;;;1.60;;
13708;SDS011;54933;51.908;7.730;2023-01-29T04:27:59;1.63;;;1.53;;
13708;SDS011;54933;51.908;7.730;2023-01-29T04:30:41;1.60;;;1.50;;
13708;SDS011;54933;51.908;7.730;2023-01-29T04:36:16;1.70;;;1.60;;
13708;SDS011;54933;51.908;7.730;2023-01-29T04:39:17;2.03;;;1.93;;
13708;SDS011;54933;51.908;7.730;2023-01-29T04:41:49;1.93;;;1.83;;
13708;SDS011;54933;51.908;7.730;2023-01-29T04:44:32;1.70;;;1.60;;
13708;SDS011;54933;51.908;7.730;2023-01-29T04:54:30;1.90;;;1.80;;
13708;SDS011;54933;51.908;7.730;2023-01-29T04:57:18;1.80;;;1.60;;
13708;SDS011;54933;51.908;7.730;2023-01-29T04:59:51;1.70;;;1.60;;
13708;SDS011;54933;51.908;7.730;2023-01-29T05:02:41;1.83;;;1.73;;
13708;SDS011;54933;51.908;7.730;2023-01-29T05:05:08;1.70;;;1.60;;
13708;SDS011;54933;51.908;7.730;2023-01-29T05:07:36;1.67;;;1.57;;
13708;SDS011;54933;51.908;7.730;2023-01-29T05:10:04;1.40;;;1.40;;
13708;SDS011;54933;51.908;7.730;2023-01-29T05:12:32;1.30;;;1.30;;
13708;SDS011;54933;51.908;7.730;2023-01-29T05:14:59;1.50;;;1.40;;
13708;SDS011;54933;51.908;7.730;2023-01-29T05:17:26;1.60;;;1.50;;
13708;SDS011;54933;51.908;7.730;2023-01-29T05:19:53;1.97;;;1.87;;
13708;SDS011;54933;51.908;7.730;2023-01-29T05:22:19;1.83;;;1.73;;
13708;SDS011;54933;51.908;7.730;2023-01-29T05:24:46;2.00;;;1.90;;
13708;SDS011;54933;51.908;7.730;2023-01-29T05:27:19;2.00;;;1.90;;
13708;SDS011;54933;51.908;7.730;2023-01-29T05:30:06;1.80;;;1.70;;
13708;SDS011;54933;51.908;7.730;2023-01-29T05:32:32;1.50;;;1.50;;
13708;SDS011;54933;51.908;7.730;2023-01-29T05:34:57;1.60;;;1.50;;
13708;SDS011;54933;51.908;7.730;2023-01-29T05:37:22;2.23;;;2.00;;
13708;SDS011;54933;51.908;7.730;2023-01-29T05:39:48;2.60;;;2.00;;
13708;SDS011;54933;51.908;7.730;2023-01-29T05:42:13;1.90;;;1.70;;
13708;SDS011;54933;51.908;7.730;2023-01-29T05:44:38;2.07;;;1.97;;
13708;SDS011;54933;51.908;7.730;2023-01-29T05:47:03;2.33;;;1.90;;
13708;SDS011;54933;51.908;7.730;2023-01-29T05:49:29;1.60;;;1.50;;
13708;SDS011;54933;51.908;7.730;2023-01-29T05:51:54;2.03;;;1.93;;
13708;SDS011;54933;51.908;7.730;2023-01-29T05:54:19;2.43;;;2.00;;
13708;SDS011;54933;51.908;7.730;2023-01-29T05:56:45;1.70;;;1.60;;
13708;SDS011;54933;51.908;7.730;2023-01-29T05:59:10;1.90;;;1.80;;
13708;SDS011;54933;51.908;7.730;2023-01-29T06:01:35;1.80;;;1.70;;
13708;SDS011;54933;51.908;7.730;2023-01-29T06:04:01;1.47;;;1.40;;
13708;SDS011;54933;51.908;7.730;2023-01-29T06:06:26;1.90;;;1.80;;
13708;SDS011;54933;51.908;7.730;2023-01-29T06:08:51;2.17;;;1.90;;
13708;SDS011;54933;51.908;7.730;2023-01-29T06:11:17;1.73;;;1.63;;
13708;SDS011;54933;51.908;7.730;2023-01-29T06:13:42;1.80;;;1.70;;
13708;SDS011;54933;51.908;7.730;2023-01-29T06:16:08;1.80;;;1.70;;
13708;SDS011;54933;51.908;7.730;2023-01-29T06:18:35;1.87;;;1.77;;
13708;SDS011;54933;51.908;7.730;2023-01-29T06:21:02;1.33;;;1.33;;
13708;SDS011;54933;51.908;7.730;2023-01-29T06:23:28;2.00;;;1.90;;
13708;SDS011;54933;51.908;7.730;2023-01-29T06:26:00;2.50;;;1.73;;
13708;SDS011;54933;51.908;7.730;2023-01-29T06:28:28;1.73;;;1.60;;
13708;SDS011;54933;51.908;7.730;2023-01-29T06:30:57;1.40;;;1.30;;
13708;SDS011;54933;51.908;7.730;2023-01-29T06:33:24;1.70;;;1.60;;
13708;SDS011;54933;51.908;7.730;2023-01-29T06:35:57;1.97;;;1.87;;
13708;SDS011;54933;51.908;7.730;2023-01-29T06:38:23;1.40;;;1.40;;
13708;SDS011;54933;51.908;7.730;2023-01-29T06:40:48;1.73;;;1.63;;
13708;SDS011;54933;51.908;7.730;2023-01-29T06:43:14;1.77;;;1.67;;
13708;SDS011;54933;51.908;7.730;2023-01-29T06:45:45;2.10;;;1.90;;
13708;SDS011;54933;51.908;7.730;2023-01-29T06:48:18;1.87;;;1.77;;
13708;SDS011;54933;51.908;7.730;2023-01-29T06:50:43;1.53;;;1.43;;
13708;SDS011;54933;51.908;7.730;2023-01-29T06:53:10;1.53;;;1.43;;
13708;SDS011;54933;51.908;7.730;2023-01-29T06:55:35;2.17;;;2.00;;
13708;SDS011;54933;51.908;7.730;2023-01-29T06:58:07;2.10;;;2.00;;
13708;SDS011;54933;51.908;7.730;2023-01-29T07:00:34;1.77;;;1.67;;
13708;SDS011;54933;51.908;7.730;2023-01-29T07:03:00;1.70;;;1.60;;
13708;SDS011;54933;51.908;7.730;2023-01-29T07:05:26;1.60;;;1.60;;
13708;SDS011;54933;51.908;7.730;2023-01-29T07:07:51;1.60;;;1.60;;
13708;SDS011;54933;51.908;7.730;2023-01-29T07:10:16;1.80;;;1.70;;
13708;SDS011;54933;51.908;7.730;2023-01-29T07:12:42;1.93;;;1.83;;
13708;SDS011;54933;51.908;7.730;2023-01-29T07:15:07;1.70;;;1.60;;
13708;SDS011;54933;51.908;7.730;2023-01-29T07:17:33;1.90;;;1.80;;
13708;SDS011;54933;51.908;7.730;2023-01-29T07:19:58;2.20;;;2.10;;
13708;SDS011;54933;51.908;7.730;2023-01-29T07:22:23;1.87;;;1.77;;
13708;SDS011;54933;51.908;7.730;2023-01-29T07:24:49;1.90;;;1.80;;
13708;SDS011;54933;51.908;7.730;2023-01-29T07:27:14;1.80;;;1.70;;
13708;SDS011;54933;51.908;7.730;2023-01-29T07:29:39;1.40;;;1.40;;
13708;SDS011;54933;51.908;7.730;2023-01-29T07:32:04;1.80;;;1.70;;
13708;SDS011;54933;51.908;7.730;2023-01-29T07:34:30;2.03;;;1.90;;
13708;SDS011;54933;51.908;7.730;2023-01-29T07:36:55;1.90;;;1.80;;
13708;SDS011;54933;51.908;7.730;2023-01-29T07:39:21;1.87;;;1.77;;
13708;SDS011;54933;51.908;7.730;2023-01-29T07:41:46;1.80;;;1.70;;
13708;SDS011;54933;51.908;7.730;2023-01-29T07:44:12;4.50;;;1.83;;
13708;SDS011;54933;51.908;7.730;2023-01-29T07:46:37;1.63;;;1.53;;
13708;SDS011;54933;51.908;7.730;2023-01-29T07:49:02;1.97;;;1.87;;
13708;SDS011;54933;51.908;7.730;2023-01-29T07:51:27;1.70;;;1.60;;
13708;SDS011;54933;51.908;7.730;2023-01-29T07:53:53;2.17;;;1.97;;
13708;SDS011;54933;51.908;7.730;2023-01-29T07:56:18;1.80;;;1.70;;
13708;SDS011;54933;51.908;7.730;2023-01-29T07:58:43;1.43;;;1.40;;
13708;SDS011;54933;51.908;7.730;2023-01-29T08:01:08;2.07;;;1.70;;
13708;SDS011;54933;51.908;7.730;2023-01-29T08:03:34;1.60;;;1.50;;
13708;SDS011;54933;51.908;7.730;2023-01-29T08:06:01;1.60;;;1.50;;
13708;SDS011;54933;51.908;7.730;2023-01-29T08:08:27;3.03;;;1.70;;
13708;SDS011;54933;51.908;7.730;2023-01-29T08:10:53;1.63;;;1.53;;
13708;SDS011;54933;51.908;7.730;2023-01-29T08:13:18;1.50;;;1.47;;
13708;SDS011;54933;51.908;7.730;2023-01-29T08:15:43;2.40;;;2.20;;
13708;SDS011;54933;51.908;7.730;2023-01-29T08:18:09;1.80;;;1.70;;
13708;SDS011;54933;51.908;7.730;2023-01-29T08:20:35;2.10;;;2.00;;
13708;SDS011;54933;51.908;7.730;2023-01-29T08:23:01;2.00;;;1.90;;
13708;SDS011;54933;51.908;7.730;2023-01-29T08:25:29;2.10;;;2.00;;
13708;SDS011;54933;51.908;7.730;2023-01-29T08:27:56;2.00;;;1.90;;
13708;SDS011;54933;51.908;7.730;2023-01-29T08:30:23;2.20;;;2.07;;
13708;SDS011;54933;51.908;7.730;2023-01-29T08:32:52;1.70;;;1.60;;
13708;SDS011;54933;51.908;7.730;2023-01-29T08:35:18;1.70;;;1.60;;
13708;SDS011;54933;51.908;7.730;2023-01-29T08:37:43;1.90;;;1.80;;
13708;SDS011;54933;51.908;7.730;2023-01-29T08:40:08;1.80;;;1.70;;
13708;SDS011;54933;51.908;7.730;2023-01-29T08:42:36;2.43;;;1.93;;
13708;SDS011;54933;51.908;7.730;2023-01-29T08:45:01;2.33;;;2.03;;
13708;SDS011;54933;51.908;7.730;2023-01-29T08:47:27;1.70;;;1.60;;
13708;SDS011;54933;51.908;7.730;2023-01-29T08:49:52;1.70;;;1.60;;
13708;SDS011;54933;51.908;7.730;2023-01-29T08:52:17;2.00;;;1.90;;
13708;SDS011;54933;51.908;7.730;2023-01-29T08:54:42;2.57;;;1.90;;
13708;SDS011;54933;51.908;7.730;2023-01-29T08:57:08;1.97;;;1.87;;
13708;SDS011;54933;51.908;7.730;2023-01-29T08:59:33;1.90;;;1.80;;
13708;SDS011;54933;51.908;7.730;2023-01-29T09:01:59;2.10;;;2.00;;
13708;SDS011;54933;51.908;7.730;2023-01-29T09:04:24;1.50;;;1.50;;
13708;SDS011;54933;51.908;7.730;2023-01-29T09:06:50;2.07;;;1.97;;
13708;SDS011;54933;51.908;7.730;2023-01-29T09:09:15;1.80;;;1.70;;
13708;SDS011;54933;51.908;7.730;2023-01-29T09:11:40;2.30;;;2.10;;
13708;SDS011;54933;51.908;7.730;2023-01-29T09:14:05;1.80;;;1.70;;
13708;SDS011;54933;51.908;7.730;2023-01-29T09:16:31;1.60;;;1.50;;
13708;SDS011;54933;51.908;7.730;2023-01-29T09:18:56;1.80;;;1.70;;
13708;SDS011;54933;51.908;7.730;2023-01-29T09:21:21;1.90;;;1.80;;
13708;SDS011;54933;51.908;7.730;2023-01-29T09:23:47;1.80;;;1.70;;
13708;SDS011;54933;51.908;7.730;2023-01-29T09:26:12;1.80;;;1.70;;
13708;SDS011;54933;51.908;7.730;2023-01-29T09:28:37;1.83;;;1.73;;
13708;SDS011;54933;51.908;7.730;2023-01-29T09:31:02;1.80;;;1.70;;
13708;SDS011;54933;51.908;7.730;2023-01-29T09:33:28;1.67;;;1.67;;
13708;SDS011;54933;51.908;7.730;2023-01-29T09:35:55;1.57;;;1.50;;
13708;SDS011;54933;51.908;7.730;2023-01-29T09:38:20;1.63;;;1.53;;
13708;SDS011;54933;51.908;7.730;2023-01-29T09:43:38;33.90;;;4.63;;
13708;SDS011;54933;51.908;7.730;2023-01-29T09:46:55;62.73;;;7.77;;
13708;SDS011;54933;51.908;7.730;2023-01-29T09:49:21;42.97;;;5.33;;
13708;SDS011;54933;51.908;7.730;2023-01-29T09:57:16;33.83;;;5.43;;
13708;SDS011;54933;51.908;7.730;2023-01-29T09:59:47;30.63;;;4.30;;
13708;SDS011;54933;51.908;7.730;2023-01-29T10:05:08;30.40;;;4.30;;
13708;SDS011;54933;51.908;7.730;2023-01-29T10:07:45;30.30;;;4.67;;
13708;SDS011;54933;51.908;7.730;2023-01-29T10:18:51;35.87;;;12.00;;
13708;SDS011;54933;51.908;7.730;2023-01-29T10:21:23;35.37;;;9.37;;
13708;SDS011;54933;51.908;7.730;2023-01-29T10:24:15;21.30;;;8.53;;
13708;SDS011;54933;51.908;7.730;2023-01-29T10:26:59;19.97;;;6.97;;
13708;SDS011;54933;51.908;7.730;2023-01-29T10:29:25;25.47;;;6.37;;
13708;SDS011;54933;51.908;7.730;2023-01-29T10:31:54;17.17;;;5.47;;
13708;SDS011;54933;51.908;7.730;2023-01-29T10:34:30;23.10;;;5.50;;
13708;SDS011;54933;51.908;7.730;2023-01-29T10:37:00;18.70;;;6.07;;
13708;SDS011;54933;51.908;7.730;2023-01-29T10:39:39;17.10;;;5.17;;
13708;SDS011;54933;51.908;7.730;2023-01-29T10:47:20;3.90;;;3.47;;
13708;SDS011;54933;51.908;7.730;2023-01-29T10:50:01;21.83;;;3.83;;
13708;SDS011;54933;51.908;7.730;2023-01-29T10:52:58;9.97;;;3.00;;
13708;SDS011;54933;51.908;7.730;2023-01-29T10:55:57;5.13;;;3.10;;
13708;SDS011;54933;51.908;7.730;2023-01-29T10:58:42;8.30;;;2.93;;
13708;SDS011;54933;51.908;7.730;2023-01-29T11:01:12;3.87;;;2.73;;
13708;SDS011;54933;51.908;7.730;2023-01-29T11:03:38;7.17;;;2.83;;
13708;SDS011;54933;51.908;7.730;2023-01-29T11:06:09;5.27;;;2.77;;
13708;SDS011;54933;51.908;7.730;2023-01-29T11:08:57;10.33;;;3.00;;
13708;SDS011;54933;51.908;7.730;2023-01-29T11:11:41;18.87;;;10.33;;
13708;SDS011;54933;51.908;7.730;2023-01-29T11:14:35;8.83;;;5.83;;
13708;SDS011;54933;51.908;7.730;2023-01-29T11:17:03;7.90;;;4.50;;
13708;SDS011;54933;51.908;7.730;2023-01-29T11:19:41;6.73;;;4.40;;
13708;SDS011;54933;51.908;7.730;2023-01-29T11:22:13;10.07;;;3.77;;
13708;SDS011;54933;51.908;7.730;2023-01-29T11:24:40;6.30;;;3.33;;
13708;SDS011;54933;51.908;7.730;2023-01-29T11:27:20;3.23;;;2.73;;
13708;SDS011;54933;51.908;7.730;2023-01-29T11:29:49;6.17;;;3.60;;
13708;SDS011;54933;51.908;7.730;2023-01-29T11:35:04;3.47;;;2.60;;
13708;SDS011;54933;51.908;7.730;2023-01-29T11:37:31;3.40;;;2.50;;
13708;SDS011;54933;51.908;7.730;2023-01-29T11:39:59;4.23;;;2.07;;
13708;SDS011;54933;51.908;7.730;2023-01-29T11:42:25;3.30;;;2.23;;
13708;SDS011;54933;51.908;7.730;2023-01-29T11:44:54;1.97;;;1.87;;
13708;SDS011;54933;51.908;7.730;2023-01-29T11:47:26;5.60;;;2.27;;
13708;SDS011;54933;51.908;7.730;2023-01-29T11:49:54;4.37;;;2.10;;
13708;SDS011;54933;51.908;7.730;2023-01-29T11:52:23;3.53;;;1.90;;
13708;SDS011;54933;51.908;7.730;2023-01-29T11:54:57;259.07;;;25.60;;
13708;SDS011;54933;51.908;7.730;2023-01-29T11:57:33;69.77;;;11.33;;
13708;SDS011;54933;51.908;7.730;2023-01-29T12:00:05;49.70;;;7.80;;
13708;SDS011;54933;51.908;7.730;2023-01-29T12:02:52;63.43;;;8.40;;
13708;SDS011;54933;51.908;7.730;2023-01-29T12:05:21;47.93;;;6.23;;
13708;SDS011;54933;51.908;7.730;2023-01-29T12:07:49;36.47;;;5.40;;
13708;SDS011;54933;51.908;7.730;2023-01-29T12:10:31;36.40;;;5.10;;
13708;SDS011;54933;51.908;7.730;2023-01-29T12:13:05;29.47;;;4.73;;
13708;SDS011;54933;51.908;7.730;2023-01-29T12:15:45;43.60;;;4.90;;
13708;SDS011;54933;51.908;7.730;2023-01-29T12:21:02;32.93;;;4.60;;
13708;SDS011;54933;51.908;7.730;2023-01-29T12:26:41;29.23;;;3.60;;
13708;SDS011;54933;51.908;7.730;2023-01-29T12:29:18;18.17;;;3.57;;
13708;SDS011;54933;51.908;7.730;2023-01-29T12:32:27;15.63;;;2.87;;
13708;SDS011;54933;51.908;7.730;2023-01-29T12:35:06;22.50;;;3.93;;
13708;SDS011;54933;51.908;7.730;2023-01-29T12:37:59;17.80;;;3.37;;
13708;SDS011;54933;51.908;7.730;2023-01-29T12:43:23;20.50;;;3.53;;
13708;SDS011;54933;51.908;7.730;2023-01-29T12:45:54;14.20;;;3.03;;
13708;SDS011;54933;51.908;7.730;2023-01-29T12:48:23;12.03;;;3.23;;
13708;SDS011;54933;51.908;7.730;2023-01-29T12:50:54;12.57;;;2.67;;
13708;SDS011;54933;51.908;7.730;2023-01-29T12:56:28;9.23;;;2.70;;
13708;SDS011;54933;51.908;7.730;2023-01-29T12:58:58;14.90;;;3.23;;
13708;SDS011;54933;51.908;7.730;2023-01-29T13:01:37;11.57;;;2.47;;
13708;SDS011;54933;51.908;7.730;2023-01-29T13:04:13;8.87;;;2.67;;
13708;SDS011;54933;51.908;7.730;2023-01-29T13:06:46;7.40;;;2.70;;
13708;SDS011;54933;51.908;7.730;2023-01-29T13:09:18;7.70;;;2.17;;
13708;SDS011;54933;51.908;7.730;2023-01-29T13:11:55;7.00;;;1.90;;
13708;SDS011;54933;51.908;7.730;2023-01-29T13:14:36;7.97;;;2.27;;
13708;SDS011;54933;51.908;7.730;2023-01-29T13:20:02;4.60;;;2.27;;
13708;SDS011;54933;51.908;7.730;2023-01-29T13:22:34;4.87;;;2.00;;
13708;SDS011;54933;51.908;7.730;2023-01-29T13:25:03;9.23;;;2.30;;
13708;SDS011;54933;51.908;7.730;2023-01-29T13:27:29;7.93;;;2.00;;
13708;SDS011;54933;51.908;7.730;2023-01-29T13:29:56;6.10;;;2.13;;
13708;SDS011;54933;51.908;7.730;2023-01-29T13:32:29;4.63;;;2.00;;
13708;SDS011;54933;51.908;7.730;2023-01-29T13:34:57;4.50;;;1.93;;
13708;SDS011;54933;51.908;7.730;2023-01-29T13:37:35;4.37;;;1.83;;
13708;SDS011;54933;51.908;7.730;2023-01-29T13:40:06;3.17;;;1.53;;
13708;SDS011;54933;51.908;7.730;2023-01-29T13:42:44;6.87;;;1.90;;
13708;SDS011;54933;51.908;7.730;2023-01-29T13:45:24;4.90;;;1.83;;
13708;SDS011;54933;51.908;7.730;2023-01-29T13:48:07;3.93;;;1.83;;
13708;SDS011;54933;51.908;7.730;2023-01-29T13:50:35;3.87;;;1.83;;
13708;SDS011;54933;51.908;7.730;2023-01-29T13:53:04;5.93;;;1.80;;
13708;SDS011;54933;51.908;7.730;2023-01-29T13:55:32;6.17;;;1.80;;
13708;SDS011;54933;51.908;7.730;2023-01-29T13:58:01;5.80;;;1.97;;
13708;SDS011;54933;51.908;7.730;2023-01-29T14:07:56;7.17;;;1.83;;
13708;SDS011;54933;51.908;7.730;2023-01-29T14:10:23;2.90;;;1.90;;
13708;SDS011;54933;51.908;7.730;2023-01-29T14:12:50;1.70;;;1.60;;
13708;SDS011;54933;51.908;7.730;2023-01-29T14:15:17;2.60;;;1.77;;
13708;SDS011;54933;51.908;7.730;2023-01-29T14:20:33;2.90;;;1.63;;
13708;SDS011;54933;51.908;7.730;2023-01-29T14:22:59;3.03;;;1.53;;
13708;SDS011;54933;51.908;7.730;2023-01-29T14:25:28;6.80;;;1.97;;
13708;SDS011;54933;51.908;7.730;2023-01-29T14:27:57;10.97;;;2.23;;
13708;SDS011;54933;51.908;7.730;2023-01-29T14:30:23;39.50;;;12.07;;
13708;SDS011;54933;51.908;7.730;2023-01-29T14:32:51;61.97;;;12.47;;
13708;SDS011;54933;51.908;7.730;2023-01-29T14:35:21;48.90;;;9.00;;
13708;SDS011;54933;51.908;7.730;2023-01-29T14:37:51;33.13;;;7.30;;
13708;SDS011;54933;51.908;7.730;2023-01-29T14:40:23;38.37;;;8.13;;
13708;SDS011;54933;51.908;7.730;2023-01-29T14:45:32;26.37;;;5.93;;
13708;SDS011;54933;51.908;7.730;2023-01-29T14:48:02;25.53;;;5.70;;
13708;SDS011;54933;51.908;7.730;2023-01-29T14:50:42;21.73;;;5.10;;
13708;SDS011;54933;51.908;7.730;2023-01-29T14:55:38;16.20;;;4.23;;
13708;SDS011;54933;51.908;7.730;2023-01-29T14:58:10;17.80;;;3.60;;
13708;SDS011;54933;51.908;7.730;2023-01-29T15:00:39;16.33;;;3.80;;
13708;SDS011;54933;51.908;7.730;2023-01-29T15:03:51;20.47;;;3.43;;
13708;SDS011;54933;51.908;7.730;2023-01-29T15:06:04;19.53;;;3.43;;
13708;SDS011;54933;51.908;7.730;2023-01-29T15:08:37;14.07;;;3.23;;
13708;SDS011;54933;51.908;7.730;2023-01-29T15:11:12;14.10;;;2.90;;
13708;SDS011;54933;51.908;7.730;2023-01-29T15:17:13;9.20;;;3.30;;
13708;SDS011;54933;51.908;7.730;2023-01-29T15:19:44;7.37;;;2.80;;
13708;SDS011;54933;51.908;7.730;2023-01-29T15:22:22;12.97;;;3.83;;
13708;SDS011;54933;51.908;7.730;2023-01-29T15:25:06;10.17;;;1.97;;
13708;SDS011;54933;51.908;7.730;2023-01-29T15:27:40;9.23;;;3.00;;
13708;SDS011;54933;51.908;7.730;2023-01-29T15:30:06;6.03;;;2.47;;
13708;SDS011;54933;51.908;7.730;2023-01-29T15:32:42;7.77;;;2.40;;
13708;SDS011;54933;51.908;7.730;2023-01-29T15:35:25;10.70;;;2.60;;
13708;SDS011;54933;51.908;7.730;2023-01-29T15:40:31;11.30;;;2.47;;
13708;SDS011;54933;51.908;7.730;2023-01-29T15:42:58;3.53;;;1.90;;
13708;SDS011;54933;51.908;7.730;2023-01-29T15:45:27;7.13;;;2.03;;
13708;SDS011;54933;51.908;7.730;2023-01-29T15:48:01;8.60;;;1.57;;
13708;SDS011;54933;51.908;7.730;2023-01-29T15:50:38;5.30;;;1.90;;
13708;SDS011;54933;51.908;7.730;2023-01-29T15:53:06;4.90;;;1.70;;
13708;SDS011;54933;51.908;7.730;2023-01-29T15:55:38;5.13;;;2.33;;
13708;SDS011;54933;51.908;7.730;2023-01-29T15:58:04;2.23;;;1.60;;
13708;SDS011;54933;51.908;7.730;2023-01-29T16:00:31;6.27;;;1.77;;
13708;SDS011;54933;51.908;7.730;2023-01-29T16:02:57;4.03;;;2.10;;
13708;SDS011;54933;51.908;7.730;2023-01-29T16:05:25;4.63;;;2.13;;
13708;SDS011;54933;51.908;7.730;2023-01-29T16:07:57;7.57;;;2.00;;
13708;SDS011;54933;51.908;7.730;2023-01-29T16:10:25;7.37;;;1.90;;
13708;SDS011;54933;51.908;7.730;2023-01-29T16:12:52;3.30;;;1.77;;
13708;SDS011;54933;51.908;7.730;2023-01-29T16:15:35;2.50;;;2.17;;
13708;SDS011;54933;51.908;7.730;2023-01-29T16:18:03;4.53;;;1.53;;
13708;SDS011;54933;51.908;7.730;2023-01-29T16:20:44;3.33;;;1.63;;
13708;SDS011;54933;51.908;7.730;2023-01-29T16:23:16;3.47;;;2.17;;
13708;SDS011;54933;51.908;7.730;2023-01-29T16:25:44;3.63;;;1.87;;
13708;SDS011;54933;51.908;7.730;2023-01-29T16:28:10;2.17;;;1.67;;
13708;SDS011;54933;51.908;7.730;2023-01-29T16:30:35;4.23;;;1.70;;
13708;SDS011;54933;51.908;7.730;2023-01-29T16:33:05;1.57;;;1.30;;
13708;SDS011;54933;51.908;7.730;2023-01-29T16:35:35;3.57;;;1.80;;
13708;SDS011;54933;51.908;7.730;2023-01-29T16:38:05;2.83;;;1.80;;
13708;SDS011;54933;51.908;7.730;2023-01-29T16:40:40;3.00;;;1.40;;
13708;SDS011;54933;51.908;7.730;2023-01-29T16:46:01;2.10;;;1.77;;
13708;SDS011;54933;51.908;7.730;2023-01-29T16:48:33;4.93;;;1.93;;
13708;SDS011;54933;51.908;7.730;2023-01-29T16:51:05;3.73;;;2.00;;